sensor_id;sensor_type;location;lat;lon;timestamp;temperature;humidity
51466;DHT22;37542;50.164;9.086;2022-08-19T00:00:26;18.20;55.00
51466;DHT22;37542;50.164;9.086;2022-08-19T00:04:13;18.20;55.20
51466;DHT22;37542;50.164;9.086;2022-08-19T00:07:55;18.20;55.90
51466;DHT22;37542;50.164;9.086;2022-08-19T00:11:36;18.20;55.30
51466;DHT22;37542;50.164;9.086;2022-08-19T00:15:19;18.20;55.40
51466;DHT22;37542;50.164;9.086;2022-08-19T00:19:01;18.20;55.60
51466;DHT22;37542;50.164;9.086;2022-08-19T00:22:44;18.20;55.30
51466;DHT22;37542;50.164;9.086;2022-08-19T00:26:27;18.20;55.50
51466;DHT22;37542;50.164;9.086;2022-08-19T00:30:08;18.20;55.40
51466;DHT22;37542;50.164;9.086;2022-08-19T00:33:50;18.20;55.70
51466;DHT22;37542;50.164;9.086;2022-08-19T00:37:31;18.20;55.60
51466;DHT22;37542;50.164;9.086;2022-08-19T00:41:16;18.20;55.50
51466;DHT22;37542;50.164;9.086;2022-08-19T00:45:00;18.10;56.00
51466;DHT22;37542;50.164;9.086;2022-08-19T00:48:41;18.10;55.60
51466;DHT22;37542;50.164;9.086;2022-08-19T00:52:33;18.10;55.90
51466;DHT22;37542;50.164;9.086;2022-08-19T00:56:17;18.10;57.00
51466;DHT22;37542;50.164;9.086;2022-08-19T00:59:59;18.00;56.10
51466;DHT22;37542;50.164;9.086;2022-08-19T01:03:41;18.00;56.20
51466;DHT22;37542;50.164;9.086;2022-08-19T01:07:22;18.00;56.20
51466;DHT22;37542;50.164;9.086;2022-08-19T01:11:03;18.00;56.20
51466;DHT22;37542;50.164;9.086;2022-08-19T01:14:45;18.00;56.30
51466;DHT22;37542;50.164;9.086;2022-08-19T01:18:29;18.00;56.40
51466;DHT22;37542;50.164;9.086;2022-08-19T01:26:04;17.90;57.40
51466;DHT22;37542;50.164;9.086;2022-08-19T01:29:45;17.90;56.30
51466;DHT22;37542;50.164;9.086;2022-08-19T01:33:26;17.90;56.80
51466;DHT22;37542;50.164;9.086;2022-08-19T01:37:11;17.90;56.60
51466;DHT22;37542;50.164;9.086;2022-08-19T01:40:52;17.80;56.90
51466;DHT22;37542;50.164;9.086;2022-08-19T01:44:33;17.80;56.80
51466;DHT22;37542;50.164;9.086;2022-08-19T01:48:14;17.80;56.90
51466;DHT22;37542;50.164;9.086;2022-08-19T01:51:55;17.80;57.20
51466;DHT22;37542;50.164;9.086;2022-08-19T01:55:40;17.80;57.00
51466;DHT22;37542;50.164;9.086;2022-08-19T01:59:23;17.90;57.50
51466;DHT22;37542;50.164;9.086;2022-08-19T02:03:04;17.80;57.20
51466;DHT22;37542;50.164;9.086;2022-08-19T02:06:46;17.80;56.80
51466;DHT22;37542;50.164;9.086;2022-08-19T02:10:28;17.80;56.80
51466;DHT22;37542;50.164;9.086;2022-08-19T02:14:09;17.80;56.90
51466;DHT22;37542;50.164;9.086;2022-08-19T02:17:49;17.80;56.80
51466;DHT22;37542;50.164;9.086;2022-08-19T02:21:30;17.80;56.90
51466;DHT22;37542;50.164;9.086;2022-08-19T02:25:14;17.90;57.00
51466;DHT22;37542;50.164;9.086;2022-08-19T02:28:55;17.80;57.30
51466;DHT22;37542;50.164;9.086;2022-08-19T02:32:36;17.80;57.20
51466;DHT22;37542;50.164;9.086;2022-08-19T02:36:17;17.90;57.10
51466;DHT22;37542;50.164;9.086;2022-08-19T02:39:58;17.90;57.30
51466;DHT22;37542;50.164;9.086;2022-08-19T02:43:40;17.90;57.50
51466;DHT22;37542;50.164;9.086;2022-08-19T02:47:20;17.90;57.50
51466;DHT22;37542;50.164;9.086;2022-08-19T02:51:01;17.90;57.50
51466;DHT22;37542;50.164;9.086;2022-08-19T02:54:42;17.90;57.30
51466;DHT22;37542;50.164;9.086;2022-08-19T02:58:24;17.90;57.50
51466;DHT22;37542;50.164;9.086;2022-08-19T03:02:04;17.90;57.30
51466;DHT22;37542;50.164;9.086;2022-08-19T03:05:45;18.00;57.50
51466;DHT22;37542;50.164;9.086;2022-08-19T03:09:27;17.90;57.80
51466;DHT22;37542;50.164;9.086;2022-08-19T03:13:07;18.00;57.70
51466;DHT22;37542;50.164;9.086;2022-08-19T03:16:51;18.00;57.60
51466;DHT22;37542;50.164;9.086;2022-08-19T03:20:32;17.90;57.80
51466;DHT22;37542;50.164;9.086;2022-08-19T03:24:14;18.00;57.80
51466;DHT22;37542;50.164;9.086;2022-08-19T03:27:56;18.00;57.80
51466;DHT22;37542;50.164;9.086;2022-08-19T03:31:38;18.00;57.70
51466;DHT22;37542;50.164;9.086;2022-08-19T03:35:21;18.00;57.80
51466;DHT22;37542;50.164;9.086;2022-08-19T03:39:02;17.90;57.70
51466;DHT22;37542;50.164;9.086;2022-08-19T03:42:42;17.90;57.70
51466;DHT22;37542;50.164;9.086;2022-08-19T03:46:26;17.90;57.70
51466;DHT22;37542;50.164;9.086;2022-08-19T03:50:09;17.90;57.70
51466;DHT22;37542;50.164;9.086;2022-08-19T03:53:50;17.90;57.70
51466;DHT22;37542;50.164;9.086;2022-08-19T03:57:33;17.90;57.70
51466;DHT22;37542;50.164;9.086;2022-08-19T04:01:17;17.90;57.80
51466;DHT22;37542;50.164;9.086;2022-08-19T04:05:00;17.80;57.90
51466;DHT22;37542;50.164;9.086;2022-08-19T04:08:41;17.80;57.70
51466;DHT22;37542;50.164;9.086;2022-08-19T04:12:24;17.80;57.80
51466;DHT22;37542;50.164;9.086;2022-08-19T04:16:05;17.80;57.80
51466;DHT22;37542;50.164;9.086;2022-08-19T04:19:46;17.70;58.10
51466;DHT22;37542;50.164;9.086;2022-08-19T04:23:27;17.70;58.00
51466;DHT22;37542;50.164;9.086;2022-08-19T04:27:11;17.70;57.90
51466;DHT22;37542;50.164;9.086;2022-08-19T04:30:53;17.70;58.00
51466;DHT22;37542;50.164;9.086;2022-08-19T04:34:35;17.60;58.10
51466;DHT22;37542;50.164;9.086;2022-08-19T04:38:20;17.60;58.10
51466;DHT22;37542;50.164;9.086;2022-08-19T04:42:05;17.60;58.50
51466;DHT22;37542;50.164;9.086;2022-08-19T04:46:10;17.60;58.40
51466;DHT22;37542;50.164;9.086;2022-08-19T04:49:52;17.50;58.50
51466;DHT22;37542;50.164;9.086;2022-08-19T04:53:34;17.50;58.50
51466;DHT22;37542;50.164;9.086;2022-08-19T04:57:16;17.50;58.90
51466;DHT22;37542;50.164;9.086;2022-08-19T05:00:57;17.50;58.80
51466;DHT22;37542;50.164;9.086;2022-08-19T05:04:40;17.50;58.80
51466;DHT22;37542;50.164;9.086;2022-08-19T05:08:21;17.60;59.10
51466;DHT22;37542;50.164;9.086;2022-08-19T05:12:02;17.60;59.10
51466;DHT22;37542;50.164;9.086;2022-08-19T05:15:44;17.60;59.10
51466;DHT22;37542;50.164;9.086;2022-08-19T05:19:33;17.60;59.10
51466;DHT22;37542;50.164;9.086;2022-08-19T05:23:32;17.60;59.10
51466;DHT22;37542;50.164;9.086;2022-08-19T05:27:13;17.70;59.80
51466;DHT22;37542;50.164;9.086;2022-08-19T05:30:54;17.70;59.20
51466;DHT22;37542;50.164;9.086;2022-08-19T05:34:36;17.80;59.20
51466;DHT22;37542;50.164;9.086;2022-08-19T05:38:18;17.80;59.40
51466;DHT22;37542;50.164;9.086;2022-08-19T05:42:03;17.80;59.40
51466;DHT22;37542;50.164;9.086;2022-08-19T05:45:48;17.90;59.30
51466;DHT22;37542;50.164;9.086;2022-08-19T05:49:31;17.90;59.30
51466;DHT22;37542;50.164;9.086;2022-08-19T05:53:13;18.00;59.20
51466;DHT22;37542;50.164;9.086;2022-08-19T05:56:56;18.00;59.20
51466;DHT22;37542;50.164;9.086;2022-08-19T06:00:37;18.10;59.30
51466;DHT22;37542;50.164;9.086;2022-08-19T06:04:19;18.10;59.20
51466;DHT22;37542;50.164;9.086;2022-08-19T06:08:01;18.20;59.30
51466;DHT22;37542;50.164;9.086;2022-08-19T06:11:49;18.20;59.10
51466;DHT22;37542;50.164;9.086;2022-08-19T06:15:34;18.20;59.30
51466;DHT22;37542;50.164;9.086;2022-08-19T06:19:17;18.30;59.10
51466;DHT22;37542;50.164;9.086;2022-08-19T06:22:59;18.30;59.20
51466;DHT22;37542;50.164;9.086;2022-08-19T06:26:42;18.40;59.40
51466;DHT22;37542;50.164;9.086;2022-08-19T06:30:25;18.40;59.30
51466;DHT22;37542;50.164;9.086;2022-08-19T06:34:06;18.50;59.20
51466;DHT22;37542;50.164;9.086;2022-08-19T06:37:47;18.50;59.30
51466;DHT22;37542;50.164;9.086;2022-08-19T06:41:29;18.60;59.30
51466;DHT22;37542;50.164;9.086;2022-08-19T06:45:11;18.60;59.30
51466;DHT22;37542;50.164;9.086;2022-08-19T06:48:52;18.70;59.30
51466;DHT22;37542;50.164;9.086;2022-08-19T06:52:35;18.70;59.10
51466;DHT22;37542;50.164;9.086;2022-08-19T06:56:19;18.80;59.20
51466;DHT22;37542;50.164;9.086;2022-08-19T07:00:04;18.90;59.20
51466;DHT22;37542;50.164;9.086;2022-08-19T07:03:57;19.00;59.20
51466;DHT22;37542;50.164;9.086;2022-08-19T07:07:48;19.00;59.30
51466;DHT22;37542;50.164;9.086;2022-08-19T07:11:30;19.10;59.00
51466;DHT22;37542;50.164;9.086;2022-08-19T07:15:13;19.10;58.90
51466;DHT22;37542;50.164;9.086;2022-08-19T07:19:09;19.20;58.90
51466;DHT22;37542;50.164;9.086;2022-08-19T07:23:06;19.30;59.10
51466;DHT22;37542;50.164;9.086;2022-08-19T07:27:31;19.30;58.70
51466;DHT22;37542;50.164;9.086;2022-08-19T07:31:51;19.40;58.90
51466;DHT22;37542;50.164;9.086;2022-08-19T07:35:35;19.50;58.60
51466;DHT22;37542;50.164;9.086;2022-08-19T07:39:22;19.50;58.60
51466;DHT22;37542;50.164;9.086;2022-08-19T07:43:05;19.50;58.60
51466;DHT22;37542;50.164;9.086;2022-08-19T07:46:51;19.70;58.50
51466;DHT22;37542;50.164;9.086;2022-08-19T07:54:45;19.80;58.60
51466;DHT22;37542;50.164;9.086;2022-08-19T07:58:35;20.00;58.70
51466;DHT22;37542;50.164;9.086;2022-08-19T08:02:18;20.00;58.60
51466;DHT22;37542;50.164;9.086;2022-08-19T08:05:59;20.10;58.60
51466;DHT22;37542;50.164;9.086;2022-08-19T08:09:58;20.20;58.40
51466;DHT22;37542;50.164;9.086;2022-08-19T08:23:14;20.60;57.80
51466;DHT22;37542;50.164;9.086;2022-08-19T08:27:08;20.80;57.70
51466;DHT22;37542;50.164;9.086;2022-08-19T08:31:08;20.90;57.50
51466;DHT22;37542;50.164;9.086;2022-08-19T08:39:49;21.00;56.90
51466;DHT22;37542;50.164;9.086;2022-08-19T08:43:39;21.20;56.80
51466;DHT22;37542;50.164;9.086;2022-08-19T08:47:49;21.30;56.20
51466;DHT22;37542;50.164;9.086;2022-08-19T08:59:46;21.50;55.50
51466;DHT22;37542;50.164;9.086;2022-08-19T09:03:50;21.60;55.40
51466;DHT22;37542;50.164;9.086;2022-08-19T09:12:48;21.70;53.90
51466;DHT22;37542;50.164;9.086;2022-08-19T09:21:01;21.80;53.90
51466;DHT22;37542;50.164;9.086;2022-08-19T09:34:34;22.20;53.70
51466;DHT22;37542;50.164;9.086;2022-08-19T09:38:27;22.30;53.40
51466;DHT22;37542;50.164;9.086;2022-08-19T09:42:14;22.40;52.50
51466;DHT22;37542;50.164;9.086;2022-08-19T09:56:32;22.70;51.30
51466;DHT22;37542;50.164;9.086;2022-08-19T10:00:13;22.90;50.50
51466;DHT22;37542;50.164;9.086;2022-08-19T10:04:15;23.00;51.20
51466;DHT22;37542;50.164;9.086;2022-08-19T10:07:55;23.10;50.80
51466;DHT22;37542;50.164;9.086;2022-08-19T10:11:40;23.30;51.10
51466;DHT22;37542;50.164;9.086;2022-08-19T10:19:21;23.50;50.30
51466;DHT22;37542;50.164;9.086;2022-08-19T10:23:09;23.70;50.40
51466;DHT22;37542;50.164;9.086;2022-08-19T10:26:59;23.80;49.60
51466;DHT22;37542;50.164;9.086;2022-08-19T10:30:46;23.90;48.20
51466;DHT22;37542;50.164;9.086;2022-08-19T10:34:29;24.10;48.90
51466;DHT22;37542;50.164;9.086;2022-08-19T10:38:10;24.20;49.70
51466;DHT22;37542;50.164;9.086;2022-08-19T10:41:51;24.40;49.60
51466;DHT22;37542;50.164;9.086;2022-08-19T10:45:32;24.60;49.20
51466;DHT22;37542;50.164;9.086;2022-08-19T10:49:13;24.80;48.60
51466;DHT22;37542;50.164;9.086;2022-08-19T10:52:57;24.90;48.10
51466;DHT22;37542;50.164;9.086;2022-08-19T10:56:38;25.00;47.10
51466;DHT22;37542;50.164;9.086;2022-08-19T11:00:35;25.10;47.80
51466;DHT22;37542;50.164;9.086;2022-08-19T11:04:16;25.20;47.70
51466;DHT22;37542;50.164;9.086;2022-08-19T11:07:58;25.40;47.70
51466;DHT22;37542;50.164;9.086;2022-08-19T11:11:39;25.50;47.30
51466;DHT22;37542;50.164;9.086;2022-08-19T11:15:21;25.60;47.40
51466;DHT22;37542;50.164;9.086;2022-08-19T11:19:02;25.80;47.40
51466;DHT22;37542;50.164;9.086;2022-08-19T11:22:43;26.00;47.50
51466;DHT22;37542;50.164;9.086;2022-08-19T11:26:26;26.20;47.30
51466;DHT22;37542;50.164;9.086;2022-08-19T11:30:07;26.40;46.40
51466;DHT22;37542;50.164;9.086;2022-08-19T11:33:49;26.50;46.10
51466;DHT22;37542;50.164;9.086;2022-08-19T11:37:34;26.60;45.70
51466;DHT22;37542;50.164;9.086;2022-08-19T11:41:19;26.60;45.10
51466;DHT22;37542;50.164;9.086;2022-08-19T11:45:01;26.60;45.00
51466;DHT22;37542;50.164;9.086;2022-08-19T11:48:43;26.60;45.20
51466;DHT22;37542;50.164;9.086;2022-08-19T11:52:25;26.60;44.70
51466;DHT22;37542;50.164;9.086;2022-08-19T11:56:07;26.60;44.70
51466;DHT22;37542;50.164;9.086;2022-08-19T11:59:57;26.60;44.10
51466;DHT22;37542;50.164;9.086;2022-08-19T12:03:49;26.60;44.30
51466;DHT22;37542;50.164;9.086;2022-08-19T12:07:34;26.80;43.90
51466;DHT22;37542;50.164;9.086;2022-08-19T12:11:16;26.90;43.00
51466;DHT22;37542;50.164;9.086;2022-08-19T12:14:57;27.00;44.20
51466;DHT22;37542;50.164;9.086;2022-08-19T12:18:39;27.20;43.90
51466;DHT22;37542;50.164;9.086;2022-08-19T12:22:24;27.20;42.50
51466;DHT22;37542;50.164;9.086;2022-08-19T12:26:04;27.30;42.80
51466;DHT22;37542;50.164;9.086;2022-08-19T12:29:45;27.30;42.40
51466;DHT22;37542;50.164;9.086;2022-08-19T12:33:28;27.20;42.50
51466;DHT22;37542;50.164;9.086;2022-08-19T12:37:09;27.20;42.20
51466;DHT22;37542;50.164;9.086;2022-08-19T12:40:51;27.10;42.00
51466;DHT22;37542;50.164;9.086;2022-08-19T12:48:46;27.10;40.90
51466;DHT22;37542;50.164;9.086;2022-08-19T12:52:27;27.10;41.40
51466;DHT22;37542;50.164;9.086;2022-08-19T12:56:10;27.20;42.10
51466;DHT22;37542;50.164;9.086;2022-08-19T12:59:55;27.20;41.60
51466;DHT22;37542;50.164;9.086;2022-08-19T13:03:45;27.30;41.20
51466;DHT22;37542;50.164;9.086;2022-08-19T13:07:32;27.40;40.70
51466;DHT22;37542;50.164;9.086;2022-08-19T13:11:16;27.40;41.70
51466;DHT22;37542;50.164;9.086;2022-08-19T13:15:00;27.40;40.40
51466;DHT22;37542;50.164;9.086;2022-08-19T13:18:44;27.40;41.10
51466;DHT22;37542;50.164;9.086;2022-08-19T13:22:28;27.30;40.60
51466;DHT22;37542;50.164;9.086;2022-08-19T13:26:10;27.30;41.30
51466;DHT22;37542;50.164;9.086;2022-08-19T13:29:51;27.30;41.40
51466;DHT22;37542;50.164;9.086;2022-08-19T13:33:51;27.40;40.80
51466;DHT22;37542;50.164;9.086;2022-08-19T13:37:31;27.50;40.90
51466;DHT22;37542;50.164;9.086;2022-08-19T13:41:21;27.60;41.00
51466;DHT22;37542;50.164;9.086;2022-08-19T13:45:02;27.90;40.90
51466;DHT22;37542;50.164;9.086;2022-08-19T13:48:46;28.10;40.70
51466;DHT22;37542;50.164;9.086;2022-08-19T13:52:28;28.30;40.40
51466;DHT22;37542;50.164;9.086;2022-08-19T13:56:12;28.50;39.90
51466;DHT22;37542;50.164;9.086;2022-08-19T13:59:54;28.70;39.60
51466;DHT22;37542;50.164;9.086;2022-08-19T14:03:36;28.80;39.50
51466;DHT22;37542;50.164;9.086;2022-08-19T14:07:17;28.80;39.10
51466;DHT22;37542;50.164;9.086;2022-08-19T14:10:58;28.70;39.00
51466;DHT22;37542;50.164;9.086;2022-08-19T14:14:39;28.60;38.80
51466;DHT22;37542;50.164;9.086;2022-08-19T14:18:20;28.40;38.90
51466;DHT22;37542;50.164;9.086;2022-08-19T14:22:01;28.20;39.30
51466;DHT22;37542;50.164;9.086;2022-08-19T14:26:12;28.10;39.30
51466;DHT22;37542;50.164;9.086;2022-08-19T14:34:39;27.80;37.50
51466;DHT22;37542;50.164;9.086;2022-08-19T14:38:20;27.70;38.10
51466;DHT22;37542;50.164;9.086;2022-08-19T14:42:49;27.60;37.70
51466;DHT22;37542;50.164;9.086;2022-08-19T14:46:27;27.60;36.70
51466;DHT22;37542;50.164;9.086;2022-08-19T14:50:11;27.50;36.90
51466;DHT22;37542;50.164;9.086;2022-08-19T14:53:53;27.40;37.50
51466;DHT22;37542;50.164;9.086;2022-08-19T14:57:34;27.30;37.50
51466;DHT22;37542;50.164;9.086;2022-08-19T15:01:15;27.30;37.90
51466;DHT22;37542;50.164;9.086;2022-08-19T15:04:56;27.30;38.10
51466;DHT22;37542;50.164;9.086;2022-08-19T15:08:38;27.30;38.10
51466;DHT22;37542;50.164;9.086;2022-08-19T15:12:21;27.40;38.00
51466;DHT22;37542;50.164;9.086;2022-08-19T15:16:02;27.60;38.00
51466;DHT22;37542;50.164;9.086;2022-08-19T15:19:43;27.60;37.40
51466;DHT22;37542;50.164;9.086;2022-08-19T15:23:25;27.70;37.50
51466;DHT22;37542;50.164;9.086;2022-08-19T15:27:05;27.80;37.30
51466;DHT22;37542;50.164;9.086;2022-08-19T15:30:46;27.80;37.10
51466;DHT22;37542;50.164;9.086;2022-08-19T15:34:28;27.90;37.10
51466;DHT22;37542;50.164;9.086;2022-08-19T15:38:10;27.80;36.90
51466;DHT22;37542;50.164;9.086;2022-08-19T15:41:53;27.80;36.60
51466;DHT22;37542;50.164;9.086;2022-08-19T15:45:39;27.70;36.60
51466;DHT22;37542;50.164;9.086;2022-08-19T15:50:19;27.60;35.90
51466;DHT22;37542;50.164;9.086;2022-08-19T15:54:33;27.50;35.50
51466;DHT22;37542;50.164;9.086;2022-08-19T15:58:24;27.40;37.00
51466;DHT22;37542;50.164;9.086;2022-08-19T16:02:26;27.30;36.10
51466;DHT22;37542;50.164;9.086;2022-08-19T16:06:28;27.20;36.70
51466;DHT22;37542;50.164;9.086;2022-08-19T16:10:10;27.20;36.90
51466;DHT22;37542;50.164;9.086;2022-08-19T16:13:53;27.10;36.90
51466;DHT22;37542;50.164;9.086;2022-08-19T16:17:34;27.10;36.90
51466;DHT22;37542;50.164;9.086;2022-08-19T16:21:15;27.00;36.80
51466;DHT22;37542;50.164;9.086;2022-08-19T16:24:57;27.00;37.00
51466;DHT22;37542;50.164;9.086;2022-08-19T16:28:39;26.90;36.90
51466;DHT22;37542;50.164;9.086;2022-08-19T16:36:33;26.80;36.70
51466;DHT22;37542;50.164;9.086;2022-08-19T16:40:14;26.80;37.30
51466;DHT22;37542;50.164;9.086;2022-08-19T16:43:55;26.70;37.10
51466;DHT22;37542;50.164;9.086;2022-08-19T16:47:36;26.70;37.50
51466;DHT22;37542;50.164;9.086;2022-08-19T16:51:17;26.60;37.30
51466;DHT22;37542;50.164;9.086;2022-08-19T16:55:18;26.60;37.30
51466;DHT22;37542;50.164;9.086;2022-08-19T16:59:04;26.50;37.10
51466;DHT22;37542;50.164;9.086;2022-08-19T17:07:08;26.50;37.10
51466;DHT22;37542;50.164;9.086;2022-08-19T17:10:49;26.40;37.70
51466;DHT22;37542;50.164;9.086;2022-08-19T17:14:30;26.40;37.60
51466;DHT22;37542;50.164;9.086;2022-08-19T17:18:31;26.30;37.60
51466;DHT22;37542;50.164;9.086;2022-08-19T17:27:09;26.20;37.90
51466;DHT22;37542;50.164;9.086;2022-08-19T17:30:51;26.20;38.50
51466;DHT22;37542;50.164;9.086;2022-08-19T17:34:32;26.10;37.90
51466;DHT22;37542;50.164;9.086;2022-08-19T17:47:31;25.90;38.20
51466;DHT22;37542;50.164;9.086;2022-08-19T17:51:24;25.90;38.30
51466;DHT22;37542;50.164;9.086;2022-08-19T17:55:11;25.80;38.50
51466;DHT22;37542;50.164;9.086;2022-08-19T17:58:55;25.80;38.60
51466;DHT22;37542;50.164;9.086;2022-08-19T18:02:45;25.70;39.10
51466;DHT22;37542;50.164;9.086;2022-08-19T18:06:47;25.70;38.90
51466;DHT22;37542;50.164;9.086;2022-08-19T18:10:30;25.60;39.00
51466;DHT22;37542;50.164;9.086;2022-08-19T18:14:42;25.50;39.40
51466;DHT22;37542;50.164;9.086;2022-08-19T18:18:57;25.50;39.40
51466;DHT22;37542;50.164;9.086;2022-08-19T18:27:16;25.30;40.20
51466;DHT22;37542;50.164;9.086;2022-08-19T18:30:56;25.20;39.80
51466;DHT22;37542;50.164;9.086;2022-08-19T18:34:38;25.10;40.20
51466;DHT22;37542;50.164;9.086;2022-08-19T18:38:21;25.10;40.80
51466;DHT22;37542;50.164;9.086;2022-08-19T18:42:20;24.90;41.00
51466;DHT22;37542;50.164;9.086;2022-08-19T18:46:19;24.80;41.00
51466;DHT22;37542;50.164;9.086;2022-08-19T18:50:18;24.70;40.90
51466;DHT22;37542;50.164;9.086;2022-08-19T18:53:59;24.60;41.00
51466;DHT22;37542;50.164;9.086;2022-08-19T18:57:40;24.50;41.10
51466;DHT22;37542;50.164;9.086;2022-08-19T19:01:28;24.40;41.40
51466;DHT22;37542;50.164;9.086;2022-08-19T19:05:14;24.30;41.80
51466;DHT22;37542;50.164;9.086;2022-08-19T19:08:55;24.20;41.70
51466;DHT22;37542;50.164;9.086;2022-08-19T19:12:40;24.10;42.00
51466;DHT22;37542;50.164;9.086;2022-08-19T19:16:25;24.00;42.80
51466;DHT22;37542;50.164;9.086;2022-08-19T19:20:06;23.90;42.30
51466;DHT22;37542;50.164;9.086;2022-08-19T19:23:48;23.80;42.80
51466;DHT22;37542;50.164;9.086;2022-08-19T19:32:49;23.60;43.20
51466;DHT22;37542;50.164;9.086;2022-08-19T19:36:31;23.40;43.50
51466;DHT22;37542;50.164;9.086;2022-08-19T19:40:11;23.30;42.90
51466;DHT22;37542;50.164;9.086;2022-08-19T19:43:54;23.20;43.50
51466;DHT22;37542;50.164;9.086;2022-08-19T19:48:02;23.10;43.70
51466;DHT22;37542;50.164;9.086;2022-08-19T19:51:44;23.00;44.20
51466;DHT22;37542;50.164;9.086;2022-08-19T19:55:25;22.90;43.50
51466;DHT22;37542;50.164;9.086;2022-08-19T19:59:08;22.90;43.60
51466;DHT22;37542;50.164;9.086;2022-08-19T20:02:49;22.80;43.70
51466;DHT22;37542;50.164;9.086;2022-08-19T20:06:30;22.70;44.00
51466;DHT22;37542;50.164;9.086;2022-08-19T20:10:11;22.70;43.70
51466;DHT22;37542;50.164;9.086;2022-08-19T20:13:53;22.60;43.90
51466;DHT22;37542;50.164;9.086;2022-08-19T20:17:34;22.60;44.10
51466;DHT22;37542;50.164;9.086;2022-08-19T20:21:22;22.50;43.50
51466;DHT22;37542;50.164;9.086;2022-08-19T20:25:07;22.50;43.30
51466;DHT22;37542;50.164;9.086;2022-08-19T20:28:50;22.40;43.20
51466;DHT22;37542;50.164;9.086;2022-08-19T20:32:31;22.40;43.10
51466;DHT22;37542;50.164;9.086;2022-08-19T20:36:12;22.40;43.00
51466;DHT22;37542;50.164;9.086;2022-08-19T20:39:53;22.30;42.80
51466;DHT22;37542;50.164;9.086;2022-08-19T20:43:34;22.30;42.90
51466;DHT22;37542;50.164;9.086;2022-08-19T20:47:15;22.30;42.70
51466;DHT22;37542;50.164;9.086;2022-08-19T20:50:55;22.30;42.50
51466;DHT22;37542;50.164;9.086;2022-08-19T20:54:36;22.30;42.40
51466;DHT22;37542;50.164;9.086;2022-08-19T20:58:19;22.20;42.30
51466;DHT22;37542;50.164;9.086;2022-08-19T21:02:01;22.20;42.20
51466;DHT22;37542;50.164;9.086;2022-08-19T21:05:43;22.20;42.10
51466;DHT22;37542;50.164;9.086;2022-08-19T21:09:25;22.10;42.00
51466;DHT22;37542;50.164;9.086;2022-08-19T21:13:06;22.20;42.10
51466;DHT22;37542;50.164;9.086;2022-08-19T21:16:47;22.10;42.00
51466;DHT22;37542;50.164;9.086;2022-08-19T21:20:29;22.10;42.10
51466;DHT22;37542;50.164;9.086;2022-08-19T21:24:10;22.10;42.10
51466;DHT22;37542;50.164;9.086;2022-08-19T21:27:51;22.00;42.10
51466;DHT22;37542;50.164;9.086;2022-08-19T21:31:32;22.00;42.20
51466;DHT22;37542;50.164;9.086;2022-08-19T21:35:12;22.00;42.80
51466;DHT22;37542;50.164;9.086;2022-08-19T21:38:53;21.90;42.20
51466;DHT22;37542;50.164;9.086;2022-08-19T21:42:34;21.90;42.30
51466;DHT22;37542;50.164;9.086;2022-08-19T21:46:15;21.80;42.20
51466;DHT22;37542;50.164;9.086;2022-08-19T21:49:56;21.80;42.20
51466;DHT22;37542;50.164;9.086;2022-08-19T21:53:37;21.80;42.30
51466;DHT22;37542;50.164;9.086;2022-08-19T21:57:18;21.70;42.50
51466;DHT22;37542;50.164;9.086;2022-08-19T22:00:59;21.60;42.40
51466;DHT22;37542;50.164;9.086;2022-08-19T22:04:44;21.60;42.60
51466;DHT22;37542;50.164;9.086;2022-08-19T22:08:25;21.50;42.50
51466;DHT22;37542;50.164;9.086;2022-08-19T22:12:09;21.50;42.70
51466;DHT22;37542;50.164;9.086;2022-08-19T22:15:59;21.30;42.90
51466;DHT22;37542;50.164;9.086;2022-08-19T22:19:40;21.30;42.90
51466;DHT22;37542;50.164;9.086;2022-08-19T22:23:20;21.20;43.10
51466;DHT22;37542;50.164;9.086;2022-08-19T22:27:01;21.10;43.10
51466;DHT22;37542;50.164;9.086;2022-08-19T22:30:45;21.00;43.30
51466;DHT22;37542;50.164;9.086;2022-08-19T22:34:26;20.90;44.00
51466;DHT22;37542;50.164;9.086;2022-08-19T22:38:09;20.80;43.70
51466;DHT22;37542;50.164;9.086;2022-08-19T22:41:52;20.70;43.70
51466;DHT22;37542;50.164;9.086;2022-08-19T22:45:34;20.60;43.70
51466;DHT22;37542;50.164;9.086;2022-08-19T22:49:15;20.50;43.90
51466;DHT22;37542;50.164;9.086;2022-08-19T22:52:57;20.40;44.00
51466;DHT22;37542;50.164;9.086;2022-08-19T22:56:38;20.30;44.30
51466;DHT22;37542;50.164;9.086;2022-08-19T23:00:21;20.20;45.00
51466;DHT22;37542;50.164;9.086;2022-08-19T23:04:05;20.10;44.60
51466;DHT22;37542;50.164;9.086;2022-08-19T23:07:46;20.00;44.60
51466;DHT22;37542;50.164;9.086;2022-08-19T23:11:27;20.00;44.70
51466;DHT22;37542;50.164;9.086;2022-08-19T23:15:18;19.80;44.70
51466;DHT22;37542;50.164;9.086;2022-08-19T23:19:03;19.70;45.40
51466;DHT22;37542;50.164;9.086;2022-08-19T23:22:45;19.70;45.10
51466;DHT22;37542;50.164;9.086;2022-08-19T23:26:28;19.60;45.20
51466;DHT22;37542;50.164;9.086;2022-08-19T23:30:10;19.50;45.20
51466;DHT22;37542;50.164;9.086;2022-08-19T23:34:06;19.40;45.50
51466;DHT22;37542;50.164;9.086;2022-08-19T23:37:46;19.30;45.30
51466;DHT22;37542;50.164;9.086;2022-08-19T23:41:27;19.30;45.60
51466;DHT22;37542;50.164;9.086;2022-08-19T23:45:08;19.20;45.90
51466;DHT22;37542;50.164;9.086;2022-08-19T23:48:49;19.10;45.90
51466;DHT22;37542;50.164;9.086;2022-08-19T23:52:41;19.00;45.90
51466;DHT22;37542;50.164;9.086;2022-08-19T23:56:26;18.90;46.50
